createdAt,value
2018-10-12T06:25:22.585Z,47.33
2018-10-12T06:27:50.829Z,48.07
2018-10-12T06:30:19.088Z,53.87
2018-10-12T06:32:47.388Z,48.83
2018-10-12T06:35:15.579Z,45.67
2018-10-12T06:37:43.816Z,42.93
2018-10-12T06:40:12.044Z,45.23
2018-10-12T06:42:40.280Z,39.60
2018-10-12T06:45:08.511Z,41.13
2018-10-12T06:47:36.744Z,37.60
2018-10-12T06:50:06.135Z,48.17
2018-10-12T06:52:34.496Z,42.53
2018-10-12T06:55:02.720Z,39.33
2018-10-12T06:57:30.971Z,33.80
2018-10-12T06:59:59.225Z,36.33
2018-10-12T07:02:27.456Z,32.27
2018-10-12T07:04:55.696Z,31.43
2018-10-12T07:07:23.951Z,30.37
2018-10-12T07:09:52.187Z,30.10
2018-10-12T07:12:20.431Z,33.20
2018-10-12T07:14:48.655Z,26.30
2018-10-12T07:17:16.913Z,29.43
2018-10-12T07:19:45.128Z,28.83
2018-10-12T07:22:13.384Z,28.87
2018-10-12T07:24:41.612Z,27.47
2018-10-12T07:27:09.852Z,28.30
2018-10-12T07:29:38.109Z,25.53
2018-10-12T07:32:06.436Z,23.10
2018-10-12T07:34:34.655Z,24.00
2018-10-12T07:37:02.921Z,24.53
2018-10-12T07:39:31.149Z,25.77
2018-10-12T07:41:59.404Z,32.07
2018-10-12T07:44:27.635Z,23.93
2018-10-12T07:46:55.885Z,21.80
2018-10-12T07:49:24.116Z,26.63
2018-10-12T07:51:52.383Z,21.23
2018-10-12T07:54:20.620Z,20.73
2018-10-12T07:56:48.879Z,24.23
2018-10-12T07:59:17.120Z,26.00
2018-10-12T08:01:45.367Z,25.40
2018-10-12T08:04:13.605Z,27.77
2018-10-12T08:06:41.934Z,21.90
2018-10-12T08:09:10.109Z,22.37
2018-10-12T08:11:38.528Z,21.33
2018-10-12T08:14:06.895Z,22.43
2018-10-12T08:16:35.140Z,22.67
2018-10-12T08:19:03.367Z,25.90
2018-10-12T08:21:31.620Z,19.00
2018-10-12T08:23:59.840Z,25.53
2018-10-12T08:26:28.089Z,22.63
2018-10-12T08:28:56.332Z,22.67
2018-10-12T08:31:24.584Z,24.07
2018-10-12T08:33:52.847Z,21.13
2018-10-12T08:36:21.106Z,19.90
2018-10-12T08:38:49.336Z,18.20
2018-10-12T08:41:17.599Z,20.43
2018-10-12T08:43:45.850Z,20.43
2018-10-12T08:46:14.095Z,21.27
2018-10-12T08:48:42.344Z,20.97
2018-10-12T08:51:10.657Z,16.33
2018-10-12T08:53:38.911Z,22.03
2018-10-12T08:56:07.163Z,19.57
2018-10-12T08:58:35.432Z,19.00
2018-10-12T09:01:03.656Z,21.77
2018-10-12T09:03:31.904Z,17.33
2018-10-12T09:06:00.141Z,19.77
2018-10-12T09:08:28.388Z,24.73
2018-10-12T09:10:56.625Z,16.03
2018-10-12T09:13:24.879Z,21.83
2018-10-12T09:15:53.112Z,18.30
2018-10-12T09:18:21.363Z,17.40
2018-10-12T09:20:49.689Z,15.53
2018-10-12T09:23:17.916Z,19.13
2018-10-12T09:25:46.185Z,15.90
2018-10-12T09:28:14.432Z,20.07
2018-10-12T09:30:42.684Z,20.27
2018-10-12T09:33:10.944Z,16.07
2018-10-12T09:35:39.167Z,17.53
2018-10-12T09:38:07.425Z,19.23
2018-10-12T09:40:35.812Z,16.53
2018-10-12T09:43:04.067Z,22.97
2018-10-12T09:45:32.304Z,17.00
2018-10-12T09:48:00.583Z,20.63
2018-10-12T09:50:28.837Z,25.60
2018-10-12T09:52:57.079Z,18.40
2018-10-12T09:55:25.348Z,19.17
2018-10-12T09:57:53.607Z,14.67
2018-10-12T10:00:27.372Z,17.97
2018-10-12T10:03:01.097Z,17.77
2018-10-12T10:05:29.327Z,20.50
2018-10-12T10:07:57.805Z,16.83
2018-10-12T10:10:25.853Z,16.30
2018-10-12T10:12:54.155Z,14.93
2018-10-12T10:15:22.407Z,21.83
2018-10-12T10:17:50.657Z,17.93
2018-10-12T10:20:18.897Z,14.03
2018-10-12T10:22:47.180Z,15.97
2018-10-12T10:25:15.413Z,13.43
2018-10-12T10:27:43.649Z,12.87
2018-10-12T10:30:11.919Z,16.43
2018-10-12T10:32:40.223Z,14.30
2018-10-12T10:35:08.468Z,15.40
2018-10-12T10:37:36.920Z,14.70
2018-10-12T10:40:05.172Z,13.23
2018-10-12T10:42:33.479Z,16.23
2018-10-12T10:45:01.743Z,17.27
2018-10-12T10:47:29.983Z,17.80
2018-10-12T10:49:58.277Z,16.73
2018-10-12T10:52:26.501Z,16.73
2018-10-12T10:54:54.752Z,15.30
2018-10-12T10:57:22.992Z,20.70
2018-10-12T10:59:51.244Z,13.53
2018-10-12T11:02:19.480Z,14.87
2018-10-12T11:04:47.720Z,15.50
2018-10-12T11:07:15.952Z,13.83
2018-10-12T11:09:44.208Z,19.23
2018-10-12T11:12:12.508Z,17.30
2018-10-12T11:14:40.723Z,13.90
2018-10-12T11:17:08.944Z,20.50
2018-10-12T11:19:37.238Z,12.53
2018-10-12T11:22:05.769Z,19.43
2018-10-12T11:24:34.159Z,12.50
2018-10-12T11:27:02.273Z,15.37
2018-10-12T11:29:30.533Z,12.23
2018-10-12T11:31:58.795Z,15.90
2018-10-12T11:34:27.076Z,13.73
2018-10-12T11:36:55.303Z,17.40
2018-10-12T11:39:23.552Z,12.43
2018-10-12T11:41:51.785Z,12.57
2018-10-12T11:44:20.040Z,14.63
2018-10-12T11:46:54.752Z,18.47
2018-10-12T11:49:22.999Z,20.57
2018-10-12T11:51:51.236Z,13.50
2018-10-12T11:54:19.483Z,12.93
2018-10-12T11:56:47.711Z,12.10
2018-10-12T11:59:15.948Z,13.03
2018-10-12T12:01:44.176Z,16.10
2018-10-12T12:04:12.411Z,12.93
2018-10-12T12:06:40.652Z,19.53
2018-10-12T12:09:08.903Z,15.27
2018-10-12T12:11:37.139Z,15.17
2018-10-12T12:14:05.461Z,12.33
2018-10-12T12:16:33.637Z,16.57
2018-10-12T12:19:01.877Z,15.77
2018-10-12T12:21:30.443Z,13.83
2018-10-12T12:23:58.692Z,14.30
2018-10-12T12:26:26.947Z,13.17
2018-10-12T12:28:55.232Z,14.87
2018-10-12T12:31:23.496Z,13.40
2018-10-12T12:33:51.727Z,14.90
2018-10-12T12:36:19.983Z,12.87
2018-10-12T12:38:48.200Z,15.03
2018-10-12T12:41:16.447Z,17.50
2018-10-12T12:43:45.536Z,19.00
2018-10-12T12:46:14.480Z,14.40
2018-10-12T12:48:43.025Z,13.67
2018-10-12T12:51:11.848Z,16.80
2018-10-12T12:53:40.090Z,24.50
2018-10-12T12:56:08.831Z,16.40
2018-10-12T12:58:37.076Z,12.07
2018-10-12T13:01:05.324Z,14.07
2018-10-12T13:03:33.561Z,17.10
2018-10-12T13:06:01.808Z,12.07
2018-10-12T13:08:30.048Z,14.40
2018-10-12T13:10:58.318Z,11.87
2018-10-12T13:13:26.556Z,12.23
2018-10-12T13:15:54.799Z,12.97
2018-10-12T13:18:23.016Z,16.40
2018-10-12T13:20:51.260Z,11.13
2018-10-12T13:23:19.486Z,14.53
2018-10-12T13:25:47.848Z,13.03
2018-10-12T13:28:16.038Z,11.60
2018-10-12T13:30:44.352Z,12.20
2018-10-12T13:33:12.592Z,15.97
2018-10-12T13:35:40.841Z,22.03
2018-10-12T13:38:09.073Z,34.60
2018-10-12T13:40:37.332Z,10.53
2018-10-12T13:43:05.565Z,13.87
2018-10-12T13:45:33.796Z,12.83
2018-10-12T13:48:02.008Z,15.07
2018-10-12T13:50:30.247Z,14.20
2018-10-12T13:52:58.480Z,14.80
2018-10-12T13:55:33.451Z,13.20
2018-10-12T13:58:01.688Z,14.23
2018-10-12T14:00:30.014Z,13.47
2018-10-12T14:02:58.253Z,10.57
2018-10-12T14:05:26.484Z,13.03
2018-10-12T14:07:54.708Z,14.13
2018-10-12T14:10:22.964Z,10.53
2018-10-12T14:12:51.194Z,13.17
2018-10-12T14:15:19.448Z,12.03
2018-10-12T14:17:47.675Z,16.13
2018-10-12T14:20:15.936Z,20.53
2018-10-12T14:22:44.158Z,13.63
2018-10-12T14:25:12.419Z,11.40
2018-10-12T14:27:40.668Z,18.43
2018-10-12T14:30:08.921Z,12.57
2018-10-12T14:32:37.165Z,13.00
2018-10-12T14:35:05.456Z,13.93
2018-10-12T14:37:33.697Z,18.23
2018-10-12T14:40:02.587Z,11.17
2018-10-12T14:42:30.816Z,14.67
2018-10-12T14:44:59.109Z,15.27
2018-10-12T14:47:27.296Z,10.83
2018-10-12T14:49:55.517Z,16.90
2018-10-12T14:52:23.768Z,16.60
2018-10-12T14:54:51.987Z,15.53
2018-10-12T14:57:20.908Z,13.40
2018-10-12T14:59:50.395Z,15.10
2018-10-12T15:02:19.607Z,13.70
2018-10-12T15:04:47.888Z,19.47
2018-10-12T15:07:16.148Z,12.17
2018-10-12T15:09:44.391Z,12.07
2018-10-12T15:12:12.724Z,13.80
2018-10-12T15:14:52.308Z,14.80
2018-10-12T15:17:20.552Z,18.80
2018-10-12T15:19:48.779Z,14.27
2018-10-12T15:22:17.032Z,14.37
2018-10-12T15:24:51.883Z,18.47
2018-10-12T15:27:20.136Z,16.37
2018-10-12T15:29:48.376Z,17.83
2018-10-12T15:32:16.640Z,17.40
2018-10-12T15:34:44.876Z,17.20
2018-10-12T15:37:13.163Z,25.03
2018-10-12T15:39:41.387Z,24.13
2018-10-12T15:42:09.699Z,30.73
2018-10-12T15:44:37.931Z,29.33
2018-10-12T15:47:06.164Z,27.63
2018-10-12T15:49:34.401Z,34.43
2018-10-12T15:52:02.653Z,37.17
2018-10-12T15:54:30.883Z,44.43
2018-10-12T15:56:59.184Z,105.33
2018-10-12T15:59:27.392Z,145.77
2018-10-12T16:01:55.694Z,154.80
2018-10-12T16:04:24.271Z,108.77
2018-10-12T16:06:52.533Z,98.20
2018-10-12T16:09:20.759Z,75.10
2018-10-12T16:11:49.008Z,71.77
2018-10-12T16:14:17.236Z,58.00
2018-10-12T16:16:45.496Z,52.03
2018-10-12T16:19:13.716Z,40.23
2018-10-12T16:21:41.951Z,56.17
2018-10-12T16:24:11.975Z,53.27
2018-10-12T16:26:40.245Z,71.80
2018-10-12T16:29:08.555Z,74.87
2018-10-12T16:31:36.836Z,77.43
2018-10-12T16:34:05.060Z,55.60
2018-10-12T16:36:33.304Z,44.17
2018-10-12T16:39:01.575Z,32.53
2018-10-12T16:41:29.806Z,32.47
2018-10-12T16:43:58.057Z,29.57
2018-10-12T16:46:26.280Z,34.30
2018-10-12T16:48:54.577Z,35.30
2018-10-12T16:51:22.816Z,35.03
2018-10-12T16:53:51.067Z,31.17
2018-10-12T16:56:19.298Z,34.43
2018-10-12T16:58:47.556Z,30.00
2018-10-12T17:01:15.783Z,30.80
2018-10-12T17:03:44.025Z,35.03
2018-10-12T17:06:12.256Z,46.70
2018-10-12T17:08:40.495Z,38.07
2018-10-12T17:11:08.720Z,49.23
2018-10-12T17:13:36.976Z,32.60
2018-10-12T17:16:05.203Z,39.83
2018-10-12T17:18:33.518Z,38.67
2018-10-12T17:21:01.697Z,34.37
2018-10-12T17:23:29.965Z,30.90
2018-10-12T17:25:58.379Z,29.47
2018-10-12T17:28:26.651Z,28.27
2018-10-12T17:30:54.895Z,28.53
2018-10-12T17:33:23.154Z,31.03
2018-10-12T17:35:51.431Z,29.87
2018-10-12T17:38:19.678Z,36.00
2018-10-12T17:40:47.927Z,30.87
2018-10-12T17:43:16.188Z,33.00
2018-10-12T17:45:44.559Z,31.70
2018-10-12T17:48:12.808Z,31.67
2018-10-12T17:50:41.040Z,33.27
2018-10-12T17:53:09.303Z,35.73
2018-10-12T17:55:37.526Z,37.97
2018-10-12T17:58:05.868Z,36.53
2018-10-12T18:00:34.158Z,35.10
2018-10-12T18:03:02.393Z,38.87
2018-10-12T18:05:30.632Z,35.07
2018-10-12T18:07:58.872Z,34.30
2018-10-12T18:10:27.095Z,34.00
2018-10-12T18:12:55.340Z,40.77
2018-10-12T18:15:23.638Z,42.17
2018-10-12T18:17:51.895Z,48.67
2018-10-12T18:20:20.117Z,44.83
2018-10-12T18:22:48.340Z,41.50
2018-10-12T18:25:16.635Z,36.53
2018-10-12T18:27:44.868Z,35.67
2018-10-12T18:30:13.116Z,36.67
2018-10-12T18:32:41.373Z,38.80
2018-10-12T18:35:09.604Z,36.93
2018-10-12T18:37:37.824Z,34.33
2018-10-12T18:40:06.071Z,36.93
2018-10-12T18:42:34.300Z,36.87
2018-10-12T18:45:02.562Z,36.93
2018-10-12T18:47:30.810Z,36.87
2018-10-12T18:49:59.057Z,37.83
2018-10-12T18:52:27.282Z,39.23
2018-10-12T18:54:55.528Z,37.73
2018-10-12T18:57:23.756Z,36.87
2018-10-12T18:59:52.012Z,32.87
2018-10-12T19:02:20.247Z,35.60
2018-10-12T19:04:48.511Z,38.03
2018-10-12T19:07:16.748Z,35.90
2018-10-12T19:09:44.996Z,37.17
2018-10-12T19:12:13.225Z,38.60
2018-10-12T19:14:41.479Z,35.17
2018-10-12T19:17:09.724Z,37.07
2018-10-12T19:19:38.063Z,32.50
2018-10-12T19:22:06.236Z,30.33
2018-10-12T19:24:34.484Z,33.43
2018-10-12T19:27:02.708Z,30.83
2018-10-12T19:29:31.002Z,30.40
